ENTC

Tromso/Langnes

Airport
ICAO code
ENTC
Summary
ICAO Region
EUR
ICAO Territory
Location

Tromso, Norway,

Elevation
31 ft
Coordinates
69° 40' 60" N , 18° 55' 8" E
KCC
Metar
ENTC 210450Z 18012KT 9999 BKN042 M02/M11 Q1032 RMK WIND 2600FT 21003KT

Description

International airport serving city of Tromso in northern Norway.

Climatology

Borderline Subpolar Oceanic/Continental subarctic climate (because of winter temperatures) (Köppen climate classification Cfc/Dfc) - uniform precipitation distribution, temperatures are moderated by the proximity of the ocean and warm currents - cool summers and comparatively mild winters.

Tromso has a reputation for heavy snowfalls in winter.

Runways

Designator Length Width Surface Rops
1/19 2392 45 ASP Yes/Yes

Airport map

Aerial View

SKYbrary Partners:

Safety knowledge contributed by: